ENGM - OSLO/GARDERMOEN - WMO ID: 01384

METAR

ENGM 170920Z 19012KT 160V220 9999 FEW025 SCT220 17/08 Q1017 NOSIG
ENGM 170850Z 19007KT 160V220 9999 FEW018 SCT220 16/11 Q1017 NOSIG
ENGM 170820Z 18008KT 150V220 9999 SCT016 15/10 Q1017 NOSIG
ENGM 170750Z 17009KT 9999 BKN017 15/10 Q1017 NOSIG
ENGM 170720Z 17008KT 9999 FEW011 BKN015 14/11 Q1017 NOSIG
ENGM 170650Z 16009KT 120V190 9999 FEW008 BKN014 13/11 Q1017 TEMPO SCT018
ENGM 170620Z 15006KT 110V180 9999 FEW006 BKN012 13/11 Q1017 TEMPO BKN018
ENGM 170550Z 14006KT 9999 FEW008 BKN016 13/11 Q1017 NOSIG
ENGM 170520Z 13006KT 9999 FEW009 BKN014 13/11 Q1017 TEMPO BKN018
ENGM 170450Z 14005KT 110V170 9999 FEW008 SCT012 OVC016 13/11 Q1017 TEMPO BKN012
ENGM 170420Z 15004KT 9999 SCT008 BKN012 13/11 Q1017 TEMPO BKN015
ENGM 170350Z 16004KT 130V210 9999 FEW001 SCT006 OVC009 12/12 Q1017 TEMPO BKN012
ENGM 170320Z VRB01KT 9999 2600SW BR BKN003 12/11 Q1017
ENGM 170250Z VRB01KT 8000 BR FEW001 OVC003 12/11 Q1017
ENGM 170220Z 34001KT 9000 1800SW SCT002 OVC004 12/11 Q1017
ENGM 170150Z 00000KT 7000 0800SW R19R/P2000N R01R/P2000N SCT002 OVC005 12/11 Q1017
ENGM 170120Z 20004KT 170V260 4000 BR VV002 12/11 Q1017
ENGM 170050Z 16004KT 130V190 2000 BR VV001 12/11 Q1017
ENGM 170020Z 15003KT 120V180 9999 SCT002 12/11 Q1017
ENGM 162350Z 19005KT CAVOK 12/11 Q1017
ENGM 162320Z 14004KT CAVOK 12/11 Q1017
ENGM 162250Z 18004KT CAVOK 12/10 Q1017
ENGM 162220Z 17004KT 140V200 CAVOK 13/10 Q1017
ENGM 162150Z 21005KT CAVOK 13/10 Q1017
ENGM 162120Z 21005KT 170V230 CAVOK 14/10 Q1016
ENGM 162050Z 17005KT 150V210 CAVOK 14/10 Q1016 NOSIG
ENGM 162020Z 19007KT CAVOK 15/10 Q1016 NOSIG
ENGM 161950Z 17008KT CAVOK 16/10 Q1016 NOSIG
ENGM 161920Z 17009KT CAVOK 16/10 Q1016 NOSIG
ENGM 161850Z 19009KT CAVOK 17/09 Q1016 NOSIG
ENGM 161820Z 20008KT CAVOK 18/08 Q1015 NOSIG
ENGM 161750Z 21007KT CAVOK 19/08 Q1015 NOSIG
ENGM 161720Z 20009KT CAVOK 19/08 Q1015 NOSIG
ENGM 161650Z 21008KT 180V240 CAVOK 20/07 Q1015 NOSIG
ENGM 161620Z 20008KT CAVOK 21/08 Q1015 NOSIG
ENGM 161550Z 20009KT CAVOK 20/08 Q1015 NOSIG
ENGM 161520Z 22008KT 190V250 CAVOK 21/07 Q1015 NOSIG
ENGM 161450Z 26006KT 220V330 CAVOK 21/04 Q1014 NOSIG
ENGM 161420Z VRB07KT CAVOK 21/05 Q1014 NOSIG
ENGM 161350Z 28004KT 170V330 CAVOK 21/07 Q1014 NOSIG
ENGM 161320Z 23009KT 200V260 CAVOK 20/06 Q1014 NOSIG
ENGM 161250Z 24007KT 160V290 CAVOK 20/06 Q1014 NOSIG
ENGM 161220Z 25007KT 190V320 CAVOK 20/06 Q1014 NOSIG
ENGM 161150Z 26007KT 220V290 CAVOK 19/05 Q1014 NOSIG
ENGM 161120Z 26007KT 210V300 9999 FEW045 19/07 Q1014 NOSIG
ENGM 161020Z 22003KT 160V330 9999 FEW030 SCT048 18/11 Q1013 NOSIG
ENGM 160950Z 33003KT 280V030 9999 SCT027 18/12 Q1013
ENGM 160850Z 21005KT 160V240 9999 FEW014 FEW025TCU SCT028 16/12 Q1013 NOSIG
ENGM 160820Z 20004KT 9999 FEW019 FEW025TCU SCT025 16/12 Q1012 NOSIG
ENGM 160750Z 20006KT 180V240 9999 FEW012 SCT016 16/13 Q1012 NOSIG
ENGM 160720Z 19005KT 160V230 9999 FEW012 SCT032 16/13 Q1012 NOSIG
ENGM 160650Z 21003KT 170V240 9999 FEW012 SCT032 BKN075 14/12 Q1012 NOSIG
ENGM 160620Z VRB02KT 9999 VCSH FEW013 SCT032 BKN080 14/13 Q1011 NOSIG
ENGM 160550Z VRB01KT 9999 VCSH FEW010 SCT018 BKN034 14/13 Q1011 NOSIG
ENGM 160520Z VRB02KT 9999 VCSH FEW013 BKN018 13/13 Q1011 NOSIG
ENGM 160450Z 00000KT 9999 VCFG FEW004 SCT013 BKN016 13/12 Q1011 NOSIG
ENGM 160420Z VRB02KT 9999 SCT005 BKN017 13/12 Q1011 TEMPO BKN012
ENGM 160350Z 20003KT 4000 +RA BR SCT002 OVC004 13/12 Q1011 TEMPO 9999 NSW BKN012
ENGM 160320Z VRB01KT 9999 8000E BKN003 OVC008 13/12 Q1011
ENGM 160250Z 20004KT 9999 FEW002 OVC004 13/12 Q1011
ENGM 160220Z 16004KT 120V190 9999 -RA FEW011 OVC065 13/12 Q1011
ENGM 160150Z 17004KT 9999 -RA FEW013 OVC080 13/12 Q1011
ENGM 160120Z VRB02KT 9000 RA FEW002 BKN004 13/12 Q1011
ENGM 160050Z 25006KT 190V300 7000 RA OVC003 13/12 Q1012
ENGM 160020Z 15004KT 120V190 8000 RA OVC003 13/12 Q1012
ENGM 152350Z 15004KT 120V190 6000 RA OVC003 13/12 Q1012
ENGM 152320Z VRB02KT 5000 RA BR OVC003 13/12 Q1013
ENGM 152250Z 11003KT 060V140 6000 RA BKN005 13/12 Q1013
ENGM 152220Z 15004KT 8000 -SHRA SCT009 BKN012 13/12 Q1014
ENGM 152150Z 15004KT 9999 -SHRA OVC011 13/12 Q1014
ENGM 152120Z VRB02KT 9999 -SHRA OVC015 13/12 Q1014
ENGM 152050Z 12004KT 080V160 9999 -SHRA OVC020 13/11 Q1014 TEMPO SHRA
ENGM 152020Z VRB02KT 9999 -SHRA OVC023 13/11 Q1015 TEMPO SHRA
ENGM 151950Z VRB02KT 9999 -RA OVC024 14/10 Q1015 TEMPO SHRA
ENGM 151920Z VRB02KT 9999 BKN030 13/10 Q1016 NOSIG
ENGM 151850Z VRB02KT 9999 FEW044 OVC056 13/10 Q1016 NOSIG
ENGM 151820Z VRB02KT 9999 -SHRA BKN033 13/10 Q1016 NOSIG
ENGM 151750Z VRB02KT 9999 VCSH SCT033 OVC039 13/10 Q1016 NOSIG
ENGM 151720Z 04003KT 350V130 9999 BKN028 13/11 Q1016 NOSIG
ENGM 151650Z 13006KT 080V170 9999 -SHRA OVC031 13/10 Q1017 NOSIG
ENGM 151620Z 07003KT 030V130 9999 -RA SCT030 OVC034 14/09 Q1017 NOSIG
ENGM 151550Z 15006KT 9999 -RA FEW032 BKN036 14/10 Q1018 NOSIG
ENGM 151520Z 15013KT 9999 -RA BKN039 14/09 Q1018 NOSIG
ENGM 151450Z 16009KT 110V200 9999 VCSH BKN043 16/07 Q1018 NOSIG
ENGM 151420Z 16007KT 9999 BKN045 16/07 Q1018 NOSIG
ENGM 151350Z 18011KT CAVOK 16/07 Q1018 NOSIG
ENGM 151320Z 18010KT 9999 -RA NSC 17/08 Q1019 NOSIG
ENGM 151250Z 17011KT CAVOK 17/06 Q1019 NOSIG
ENGM 151220Z 16012KT CAVOK 17/06 Q1019 NOSIG
ENGM 151150Z 17012KT 130V230 9999 SCT043 BKN075 BKN150 18/08 Q1019 NOSIG
ENGM 151120Z 19015KT 9999 SCT045 BKN160 17/06 Q1019 NOSIG
ENGM 151050Z 17015KT 9999 FEW025 SCT070 BKN170 18/06 Q1019
ENGM 151020Z 18012KT 9999 FEW025 SCT075 BKN170 18/09 Q1020 NOSIG
ENGM 150950Z 17009KT 120V220 9999 FEW022 FEW025TCU BKN075 17/09 Q1020 NOSIG
ENGM 150920Z 17010KT 9999 FEW020 FEW022TCU BKN075 16/11 Q1020 NOSIG
ENGM 150850Z 18010KT 150V210 9999 FEW020 FEW022TCU BKN075 16/10 Q1021 NOSIG
ENGM 150820Z 18008KT 150V210 9999 SCT018 BKN039 15/10 Q1021 NOSIG
ENGM 150750Z 18009KT 150V210 9999 SCT013 BKN075 15/11 Q1021 NOSIG
ENGM 150720Z 18007KT 9999 FEW009 SCT014 BKN075 14/12 Q1021 NOSIG
ENGM 150650Z 17005KT 140V200 9999 SCT012 BKN019 13/10 Q1021 NOSIG
ENGM 150620Z 18004KT 140V210 9999 FEW017 BKN160 13/10 Q1021 NOSIG
ENGM 150550Z 17006KT 9999 FEW017 BKN160 13/10 Q1021 NOSIG
ENGM 150520Z 15003KT 110V190 9999 FEW015 BKN160 13/10 Q1021 NOSIG
ENGM 150450Z VRB02KT 9999 FEW010 SCT150 11/10 Q1021 NOSIG
ENGM 150420Z 00000KT 9999 FEW006 BKN150 11/10 Q1021 NOSIG
ENGM 150350Z VRB01KT 9999 FEW008 BKN160 11/09 Q1021 NOSIG
ENGM 150320Z 12003KT 9999 FEW010 BKN160 11/10 Q1021
ENGM 150250Z 13003KT 110V170 9999 FEW010 BKN150 12/10 Q1021
ENGM 150220Z 19001KT 9999 FEW011 BKN150 11/10 Q1021
ENGM 150150Z 00000KT 9999 FEW010 BKN160 11/09 Q1021
ENGM 150120Z VRB01KT 9999 FEW011 BKN170 11/09 Q1021
ENGM 150050Z 16003KT 120V200 CAVOK 12/09 Q1021
ENGM 150020Z 15003KT CAVOK 12/09 Q1021
ENGM 142350Z 16006KT CAVOK 12/09 Q1021
ENGM 142320Z 16005KT CAVOK 12/09 Q1021
ENGM 142250Z 17006KT CAVOK 12/08 Q1021
ENGM 142220Z 17005KT CAVOK 12/08 Q1021
ENGM 142150Z 19004KT CAVOK 12/08 Q1021
ENGM 142120Z 18006KT CAVOK 13/08 Q1021
ENGM 142050Z 18006KT CAVOK 12/07 Q1021 NOSIG
ENGM 142020Z 20007KT CAVOK 13/07 Q1021 NOSIG
ENGM 141950Z 19009KT CAVOK 13/07 Q1021 NOSIG
ENGM 141920Z 20010KT CAVOK 14/07 Q1021 NOSIG
ENGM 141850Z 20010KT CAVOK 14/06 Q1020 NOSIG
ENGM 141820Z 20010KT CAVOK 15/05 Q1020 NOSIG
ENGM 141750Z 22006KT CAVOK 16/06 Q1020 NOSIG
ENGM 141720Z 22007KT CAVOK 17/04 Q1020 NOSIG
ENGM 141650Z 19008KT CAVOK 18/01 Q1020 NOSIG
ENGM 141620Z 18009KT 150V210 CAVOK 18/00 Q1020 NOSIG
ENGM 141550Z 20008KT 150V230 CAVOK 18/01 Q1020 NOSIG
ENGM 141520Z 20008KT 160V240 CAVOK 18/01 Q1020 NOSIG
ENGM 141450Z 18008KT 120V220 CAVOK 18/01 Q1020 NOSIG
ENGM 141420Z 20010KT 160V240 CAVOK 19/02 Q1020 NOSIG
ENGM 141350Z 18009KT 140V210 CAVOK 19/02 Q1020 NOSIG
ENGM 141320Z 21008KT 160V250 CAVOK 19/03 Q1020 NOSIG
ENGM 141250Z 20009KT 140V230 CAVOK 18/02 Q1020 NOSIG
ENGM 141220Z 17009KT 140V210 CAVOK 17/02 Q1020 NOSIG
ENGM 141150Z 17006KT 120V230 CAVOK 18/04 Q1020 NOSIG
ENGM 141120Z 19004KT 090V240 CAVOK 16/03 Q1020 NOSIG
ENGM 141050Z 13007KT 090V170 CAVOK 17/04 Q1020 NOSIG
ENGM 141020Z 18006KT 120V240 9999 FEW045 16/03 Q1020 NOSIG
ENGM 140950Z 19005KT 110V240 9999 FEW045 16/04 Q1020 NOSIG
ENGM 140920Z 17004KT 080V240 9999 FEW045 16/04 Q1020 NOSIG
ENGM 140850Z 15003KT 050V220 CAVOK 15/03 Q1020 NOSIG
ENGM 140820Z VRB02KT CAVOK 15/04 Q1019 NOSIG
ENGM 140750Z VRB02KT CAVOK 14/02 Q1019 NOSIG
ENGM 140720Z VRB03KT CAVOK 13/04 Q1019 NOSIG
ENGM 140650Z VRB01KT CAVOK 13/03 Q1019 NOSIG
ENGM 140620Z VRB02KT CAVOK 11/04 Q1019 NOSIG
ENGM 140550Z VRB02KT CAVOK 09/04 Q1018 NOSIG
ENGM 140520Z VRB02KT CAVOK 08/03 Q1018 NOSIG
ENGM 140450Z 00000KT CAVOK 07/03 Q1018 NOSIG
ENGM 140420Z VRB02KT CAVOK 06/03 Q1018 NOSIG
ENGM 140350Z 31003KT 280V340 CAVOK 06/03 Q1017 NOSIG
ENGM 140320Z 00000KT CAVOK 07/03 Q1017
ENGM 140250Z VRB02KT CAVOK 07/02 Q1017
ENGM 140220Z VRB02KT CAVOK 08/03 Q1017
ENGM 140150Z VRB02KT CAVOK 09/02 Q1016
ENGM 140120Z 30004KT 280V340 CAVOK 09/02 Q1016
ENGM 140050Z 28005KT 240V320 CAVOK 10/03 Q1016
ENGM 140020Z 34004KT 250V050 CAVOK 09/03 Q1016
ENGM 132350Z VRB02KT CAVOK 09/02 Q1015
ENGM 132320Z 33005KT 300V010 CAVOK 09/03 Q1015
ENGM 132250Z 35003KT CAVOK 11/02 Q1015
ENGM 132220Z 27003KT 230V300 CAVOK 11/02 Q1015
ENGM 132150Z 03003KT 330V060 CAVOK 11/02 Q1014
ENGM 132120Z 32003KT 240V010 CAVOK 12/01 Q1014
ENGM 132050Z 26004KT 210V320 CAVOK 13/02 Q1014 NOSIG
ENGM 132020Z 24004KT 210V300 CAVOK 13/01 Q1013 NOSIG
ENGM 131950Z 25003KT 200V320 CAVOK 14/01 Q1013 NOSIG
ENGM 131920Z 25003KT 220V300 CAVOK 15/01 Q1013 NOSIG
ENGM 131850Z 26003KT 210V310 CAVOK 16/01 Q1012 NOSIG
ENGM 131750Z 24006KT 200V290 CAVOK 17/M01 Q1012 NOSIG
ENGM 131720Z 25006KT 210V290 CAVOK 18/M00 Q1011 NOSIG
ENGM 131650Z 26007KT 210V310 CAVOK 18/00 Q1011 NOSIG
ENGM 131620Z 25006KT 210V290 CAVOK 18/00 Q1011 NOSIG
ENGM 131550Z 24009KT 200V270 CAVOK 19/M01 Q1011 NOSIG
ENGM 131520Z 26005KT 210V320 CAVOK 19/00 Q1011 NOSIG
ENGM 131450Z 24006KT 200V320 CAVOK 18/M01 Q1010 NOSIG
ENGM 131420Z 21005KT 160V280 CAVOK 19/00 Q1010 NOSIG
ENGM 131350Z 22006KT 150V290 CAVOK 17/01 Q1010 NOSIG
ENGM 131320Z 26004KT 210V330 CAVOK 17/00 Q1010 NOSIG
ENGM 131250Z VRB04KT CAVOK 17/02 Q1010 NOSIG
ENGM 131220Z 28005KT 210V010 CAVOK 17/M01 Q1010 NOSIG
ENGM 131150Z VRB03KT CAVOK 16/02 Q1010 NOSIG
ENGM 131120Z VRB04KT CAVOK 16/02 Q1010 NOSIG
ENGM 131050Z VRB04KT 9999 FEW047 15/03 Q1010 NOSIG
ENGM 131020Z 36006KT 310V060 9999 FEW044 15/03 Q1010 NOSIG
ENGM 130950Z 02004KT 310V110 9999 FEW040 14/03 Q1009 NOSIG
ENGM 130920Z 03006KT 310V060 9999 FEW039 14/05 Q1009 NOSIG
ENGM 130850Z VRB04KT 9999 FEW038 14/05 Q1009 NOSIG
ENGM 130820Z 02008KT 340V070 CAVOK 14/05 Q1009 NOSIG
ENGM 130750Z 01009KT CAVOK 13/04 Q1008 NOSIG
ENGM 130720Z 36011KT 330V030 CAVOK 12/05 Q1008 NOSIG
ENGM 130650Z 36009KT 330V030 CAVOK 11/05 Q1007 NOSIG
ENGM 130620Z 33004KT 220V030 CAVOK 10/05 Q1007 NOSIG
ENGM 130550Z 35005KT 290V030 CAVOK 10/05 Q1007 NOSIG
ENGM 130520Z 36006KT 320V040 CAVOK 10/05 Q1006 NOSIG
ENGM 130450Z 33005KT 290V020 CAVOK 10/05 Q1006 NOSIG
ENGM 130420Z 01008KT 330V030 CAVOK 10/06 Q1005 NOSIG
ENGM 130350Z 36008KT 320V030 CAVOK 10/06 Q1005 NOSIG
ENGM 130320Z 34005KT 290V050 CAVOK 10/06 Q1005
ENGM 130250Z 36009KT CAVOK 10/07 Q1004
ENGM 130220Z 35008KT 290V020 CAVOK 10/07 Q1004
ENGM 130150Z 36009KT 330V030 CAVOK 10/07 Q1004
ENGM 130120Z 36010KT 9999 FEW029 BKN064 10/08 Q1004
ENGM 130050Z 36011KT 330V030 9999 FEW011 BKN064 10/08 Q1003
ENGM 130020Z 36011KT 9999 -SHRA FEW031 BKN061 10/09 Q1003
ENGM 122350Z 02013KT 9999 -SHRA FEW031 BKN061 11/09 Q1003
ENGM 122320Z 01017KT 9999 -SHRA FEW031 BKN051 11/09 Q1002
ENGM 122250Z 02014KT 9999 -SHRA SCT031 BKN040 11/09 Q1003
ENGM 122220Z 01014KT 9000 SHRA BKN049 11/10 Q1002
ENGM 122150Z 35013KT 320V020 7000 SHRA SCT008 BKN018 12/11 Q1002
ENGM 122120Z 03010KT 010V070 8000 SHRA SCT007 BKN018 13/12 Q1001
ENGM 122050Z 21004KT 9999 SHRA FEW010 BKN040 15/13 Q1001 TEMPO NSW
ENGM 122020Z 20005KT 9999 SHRA SCT012 BKN035 15/13 Q1001 TEMPO NSW BKN012
ENGM 121950Z 19003KT 150V210 9999 -SHRA FEW010CB SCT013 BKN069 15/13 Q1001 TEMPO SHRA BKN012
ENGM 121920Z 22005KT 9999 -SHRA SCT013 BKN087 16/12 Q1001 TEMPO SHRA BKN012
ENGM 121850Z 20007KT 9999 -SHRA SCT015 BKN091 16/12 Q1001 NOSIG
ENGM 121820Z 20007KT 180V240 9999 VCSH SCT018 BKN091 16/12 Q1001 NOSIG
ENGM 121750Z 20010KT 9999 -SHRA FEW021 BKN093 16/12 Q1001 NOSIG
ENGM 121720Z 20012KT 9999 VCSH SCT023 BKN094 17/11 Q1001 NOSIG
ENGM 121650Z 20011KT 9999 FEW023 SCT028 BKN093 17/12 Q1002 NOSIG
ENGM 121620Z 19012KT 9999 SCT031 BKN096 18/11 Q1002 NOSIG
ENGM 121550Z 19012KT 9999 SCT026 BKN120 18/11 Q1002 NOSIG
ENGM 121520Z 20012KT 9999 SCT027 BKN200 19/12 Q1002 NOSIG
ENGM 121450Z 20011KT 170V230 9999 SCT027 BKN200 19/11 Q1002 NOSIG
ENGM 121420Z 19011KT 9999 SCT029 BKN200 19/11 Q1002 NOSIG
ENGM 121350Z 19008KT 140V220 9999 SCT026 BKN200 19/11 Q1002 NOSIG
ENGM 121320Z 19009KT 9999 SCT028 BKN200 19/11 Q1002 NOSIG
ENGM 121250Z 19009KT 160V220 9999 FEW028 19/11 Q1003 NOSIG
ENGM 121220Z 21010KT 9999 SCT027 SCT086 18/11 Q1003 NOSIG
ENGM 121150Z 21010KT 180V240 9999 BKN023 18/12 Q1003 NOSIG
ENGM 121120Z 18010KT 150V210 9999 FEW020 SCT024 17/11 Q1003 NOSIG
ENGM 121050Z 22008KT 170V250 9999 BKN021 17/11 Q1004 NOSIG
ENGM 121020Z 20010KT 160V240 9999 SCT019 BKN022 17/11 Q1004 NOSIG
ENGM 120950Z 17010KT 140V210 9999 SCT016 BKN018 16/12 Q1004 NOSIG
ENGM 120920Z 19007KT 160V240 9999 SCT015 BKN018 16/11 Q1004 NOSIG
ENGM 120850Z 19007KT 160V230 9999 FEW013 SCT015 BKN018 15/10 Q1003 NOSIG
ENGM 120820Z 20008KT 170V240 9999 FEW012 BKN015 15/10 Q1004
ENGM 120750Z 19009KT 9999 FEW012 BKN016 14/11 Q1004 NOSIG
ENGM 120720Z 19008KT 9999 FEW012 OVC015 14/11 Q1004 NOSIG
ENGM 120650Z 18008KT 150V210 9999 BKN011 13/11 Q1004 TEMPO SCT012 BKN020
ENGM 120620Z 19007KT 160V230 9999 SCT012 BKN090 13/11 Q1003 NOSIG
ENGM 120550Z 18005KT 150V210 9999 -RA FEW012 BKN080 13/11 Q1004 NOSIG
ENGM 120520Z 18004KT 9999 -RA FEW012 BKN075 13/10 Q1003 NOSIG
ENGM 120450Z 21005KT CAVOK 13/10 Q1004 NOSIG
ENGM 120420Z 21009KT 9999 FEW015 BKN093 13/10 Q1004 NOSIG
ENGM 120350Z 20007KT 9999 FEW017 BKN090 12/10 Q1004 NOSIG
ENGM 120320Z 17009KT 9999 FEW015 BKN074 13/10 Q1004
ENGM 120250Z 20007KT 9999 FEW016 BKN088 13/10 Q1005
ENGM 120220Z 19005KT CAVOK 13/10 Q1005
ENGM 120150Z 20006KT 9999 FEW017 BKN089 13/10 Q1005
ENGM 120120Z 19007KT 9999 FEW017 BKN090 13/10 Q1005
ENGM 120050Z 18007KT 9999 FEW016 BKN095 13/11 Q1005
ENGM 120020Z 16009KT 9999 SCT016 13/11 Q1005
ENGM 112350Z 16007KT 9999 FEW007 BKN016 13/11 Q1006
ENGM 112320Z 16008KT 9999 FEW007 13/11 Q1005
ENGM 112250Z 14004KT 100V200 9999 FEW009 SCT014 13/11 Q1006
ENGM 112220Z 17009KT 9999 BKN012 13/11 Q1006
ENGM 112150Z 19008KT 9999 BKN013 13/11 Q1006
ENGM 112120Z 20009KT 9999 BKN014 13/11 Q1006
ENGM 112050Z 18011KT 9999 VCSH SCT016 14/11 Q1006 NOSIG
ENGM 112020Z 18015KT 9999 VCSH FEW016 BKN018 14/11 Q1007 NOSIG
ENGM 111950Z 19011KT 170V230 9999 VCSH SCT021 14/10 Q1007 NOSIG
ENGM 111920Z 20012KT 9999 FEW023 14/10 Q1007 NOSIG
ENGM 111850Z 19014KT 9999 FEW027 15/10 Q1007 NOSIG
ENGM 111750Z 18017KT CAVOK 17/10 Q1007 NOSIG
ENGM 111720Z 19019KT CAVOK 18/09 Q1008 NOSIG
ENGM 111650Z 19018KT CAVOK 19/09 Q1008 NOSIG
ENGM 111620Z 19018KT CAVOK 20/09 Q1008 NOSIG
ENGM 111550Z 19016KT CAVOK 20/09 Q1008 NOSIG
ENGM 111520Z 19018KT CAVOK 21/09 Q1008 NOSIG
ENGM 111450Z 20016KT CAVOK 21/09 Q1009 NOSIG
ENGM 111420Z 20016KT CAVOK 22/08 Q1009 NOSIG
ENGM 111350Z 20014KT CAVOK 22/08 Q1009 NOSIG
ENGM 111320Z 20013KT 160V240 CAVOK 22/08 Q1009 NOSIG
ENGM 111250Z 20017KT 170V230 CAVOK 21/09 Q1009 NOSIG
ENGM 111220Z 20014KT 160V260 CAVOK 21/09 Q1010 NOSIG
ENGM 111150Z 22010KT 170V250 CAVOK 21/08 Q1010 NOSIG
ENGM 111120Z 22010KT CAVOK 20/09 Q1010 NOSIG
ENGM 111050Z 22008KT 160V260 CAVOK 20/09 Q1010 NOSIG
ENGM 111020Z 20012KT 170V230 CAVOK 19/07 Q1011 NOSIG
ENGM 110950Z 20014KT 170V250 CAVOK 19/08 Q1011 NOSIG
ENGM 110920Z 19011KT 160V230 CAVOK 18/09 Q1011 NOSIG
ENGM 110850Z 20010KT 160V220 CAVOK 18/08 Q1011 NOSIG
ENGM 110820Z 20010KT CAVOK 17/08 Q1012 NOSIG
ENGM 110750Z 19007KT 140V230 9999 FEW010 16/11 Q1012 NOSIG
ENGM 110720Z 18008KT CAVOK 15/11 Q1012 NOSIG
ENGM 110650Z 18008KT 9999 VCFG NSC 14/12 Q1012 NOSIG
ENGM 110620Z 18007KT 6000 VCFG BKN002 13/12 Q1013 BECMG FEW010
ENGM 110550Z 17006KT 140V200 0500 R19R/P2000N R01R/0650U FG VV002 12/11 Q1013 TEMPO 4000 BCFG BKN005
ENGM 110520Z 19004KT 150V240 0300 R19R/0500D R01R/0275N FG VV001 11/10 Q1012 TEMPO 4000 BCFG BKN005
ENGM 110450Z 00000KT 9999 0300E R19R/P2000N R01R/0325U PRFG FEW000 SCT001 11/09 Q1013 TEMPO 2000 BCFG BKN002
ENGM 110420Z 00000KT 9999 0350E R19R/P2000N R01R/P2000N PRFG NSC 09/08 Q1013 TEMPO 2000 BCFG BKN002
ENGM 110350Z 00000KT 7000 0300E R19R/P2000N R01R/0350N PRFG SCT001 09/08 Q1013 TEMPO 2000 BCFG BKN002
ENGM 110320Z VRB01KT 5000 1400SE R19R/P2000N R01R/P2000N PRFG SCT002 BKN004 10/09 Q1013
ENGM 110250Z VRB01KT CAVOK 11/10 Q1013
ENGM 110220Z 07003KT 030V110 CAVOK 10/08 Q1013
ENGM 110150Z 03003KT 360V060 CAVOK 11/10 Q1013
ENGM 110120Z 16001KT CAVOK 11/10 Q1014
ENGM 110050Z VRB02KT CAVOK 11/10 Q1014
ENGM 110020Z 22004KT CAVOK 12/11 Q1014
ENGM 102350Z 00000KT CAVOK 13/11 Q1015
ENGM 102320Z VRB01KT CAVOK 13/10 Q1015
ENGM 102250Z 24001KT CAVOK 13/08 Q1015
ENGM 102220Z 26004KT 230V290 CAVOK 14/08 Q1015
ENGM 102150Z 00000KT CAVOK 14/07 Q1015
ENGM 102120Z 25004KT CAVOK 15/07 Q1014
ENGM 102050Z 23005KT CAVOK 17/06 Q1014 NOSIG
ENGM 102020Z 26004KT CAVOK 16/07 Q1014 NOSIG
ENGM 101950Z 25004KT 230V300 CAVOK 16/08 Q1014 NOSIG
ENGM 101920Z VRB01KT CAVOK 18/07 Q1014 NOSIG
ENGM 101850Z 23003KT 200V260 CAVOK 18/07 Q1014 NOSIG
ENGM 101820Z 24003KT 210V270 CAVOK 20/07 Q1014 NOSIG
ENGM 101750Z 24004KT 210V270 CAVOK 20/07 Q1014 NOSIG
ENGM 101720Z 22005KT CAVOK 20/08 Q1014 NOSIG
ENGM 101650Z 22004KT 190V250 CAVOK 20/07 Q1014 NOSIG
ENGM 101620Z 23005KT CAVOK 20/07 Q1014 NOSIG
ENGM 101550Z 23006KT 200V260 CAVOK 20/08 Q1014 NOSIG
ENGM 101520Z 22008KT CAVOK 20/07 Q1014 NOSIG
ENGM 101450Z 23006KT CAVOK 20/08 Q1014 NOSIG
ENGM 101420Z 22007KT 200V260 9999 SCT049 SCT220 20/09 Q1014 NOSIG
ENGM 101350Z 23008KT 200V260 9999 SCT093 SCT220 21/09 Q1013 NOSIG
ENGM 101320Z 24004KT 200V310 CAVOK 20/09 Q1014 NOSIG
ENGM 101250Z 24004KT 160V280 9999 SCT049 20/08 Q1013 NOSIG
ENGM 101220Z VRB04KT 9999 SCT044 21/08 Q1013 NOSIG
ENGM 101150Z 29005KT 230V350 9999 SCT040 21/09 Q1013 NOSIG
ENGM 101120Z 26006KT 200V320 9999 SCT043 20/09 Q1013 NOSIG
ENGM 101050Z VRB04KT 9999 SCT037 20/10 Q1013 NOSIG
ENGM 101020Z 25006KT 210V320 9999 FEW033 19/10 Q1013 NOSIG
ENGM 100950Z 28004KT 200V340 9999 FEW030 19/11 Q1013 NOSIG
ENGM 100920Z 26003KT 180V340 9999 SCT026 18/11 Q1013 NOSIG
ENGM 100850Z 25004KT 200V300 9999 SCT017 17/11 Q1013 NOSIG
ENGM 100820Z 23004KT 190V290 9999 FEW010 SCT019 16/11 Q1013 NOSIG
ENGM 100750Z 24005KT 180V300 9999 FEW010 SCT015 BKN019 16/12 Q1013 NOSIG
ENGM 100720Z 21005KT 170V260 9999 FEW009 FEW013 BKN024 16/12 Q1012 NOSIG
ENGM 100650Z 20004KT 160V230 9999 FEW008 SCT028 15/13 Q1012 NOSIG
ENGM 100620Z 16004KT 090V260 9999 FEW003 SCT009 15/13 Q1012 NOSIG
ENGM 100550Z 11004KT 050V140 9999 8000S VCFG FEW002 SCT020 14/13 Q1012 NOSIG
ENGM 100520Z 00000KT 8000 VCFG FEW002 BKN019 13/12 Q1012 TEMPO BKN006
ENGM 100450Z VRB01KT 8000 4000W VCFG FEW002 BKN015 13/12 Q1011 TEMPO 2000 BCFG BKN006
ENGM 100420Z VRB01KT 9999 6000SW VCFG SCT004 BKN006 13/12 Q1011 TEMPO 2000 BCFG BKN003
ENGM 100350Z 00000KT 7000 1500N PRFG FEW001 SCT005 BKN009 12/12 Q1011 TEMPO 2000 BCFG BKN003
ENGM 100320Z VRB02KT 7000 VCFG FEW001 SCT016 12/11 Q1011
ENGM 100250Z VRB02KT 9999 BKN017 13/12 Q1011
ENGM 100150Z 00000KT 9999 FEW009 OVC017 13/12 Q1011

TAF

TAF ENGM 1706/1806 17010KT 9999 FEW040 PROB40 TEMPO 1706/1707 BKN012 BECMG 1720/1722 05008KT TEMPO 1800/1805 2000 RA BR BKN012 BECMG 1805/1806 17010KT 4000 BR BKN008
ENGM 1706/1806 17010KT 9999 FEW040 PROB40 TEMPO 1706/1707 BKN012 BECMG 1720/1722 05008KT TEMPO 1800/1805 2000 RA BR BKN012 BECMG 1805/1806 17010KT 4000 BR BKN008
TAF ENGM 1706/1806 17010KT 9999 FEW040 PROB40 TEMPO 1706/1707 BKN012 BECMG 1720/1722 05008KT TEMPO 1800/1805 2000 RA BR BKN012 BECMG 1805/1806 17010KT 4000 BR BKN008
ENGM 1706/1806 17010KT 9999 FEW040 PROB40 TEMPO 1706/1707 BKN012 BECMG 1720/1722 05008KT TEMPO 1800/1805 2000 RA BR BKN012 BECMG 1805/1806 17010KT 4000 BR BKN008
TAF ENGM 1700/1724 17008KT 9999 FEW040 PROB40 1700/1707 0500 FG VV002 PROB30 TEMPO 1721/1724 SHRA SCT030CB
TAF ENGM 1700/1724 17008KT 9999 FEW040 PROB40 1700/1707 0500 FG VV002 PROB30 TEMPO 1721/1724 SHRA SCT030CB
ENGM 1700/1724 17008KT 9999 FEW040 PROB40 1700/1707 0500 FG VV002 PROB30 TEMPO 1721/1724 SHRA SCT030CB
TAF ENGM 1618/1718 17008KT 9999 SCT040 PROB40 1700/1707 0500 FG VV002
TAF ENGM 1618/1718 17008KT 9999 SCT040 PROB40 1700/1707 0500 FG VV002
ENGM 1618/1718 17008KT 9999 SCT040 PROB40 1700/1707 0500 FG VV002
TAF ENGM 1612/1712 23007KT 9999 SCT040 PROB40 1700/1707 0800 FG VV002
TAF ENGM 1612/1712 23007KT 9999 SCT040 PROB40 1700/1707 0800 FG VV002
ENGM 1612/1712 23007KT 9999 SCT040 PROB40 1700/1707 0800 FG VV002
TAF ENGM 1606/1706 VRB05KT 9999 SCT008 BKN060 BECMG 1607/1609 25010KT BECMG 1614/1616 19007KT PROB30 1623/1706 0800 FG VV002
ENGM 1606/1706 VRB05KT 9999 SCT008 BKN060 BECMG 1607/1609 25010KT BECMG 1614/1616 19007KT PROB30 1623/1706 0800 FG VV002
ENGM 1606/1706 VRB05KT 9999 SCT008 BKN060 BECMG 1607/1609 25010KT BECMG 1614/1616 19007KT PROB30 1623/1706 0800 FG VV002
TAF AMD ENGM 1602/1624 VRB05KT 9999 SCT008 BKN060 TEMPO 1602/1606 3000 -RA BR BKN004 BECMG 1607/1609 25010KT BECMG 1614/1616 19007KT
AMD ENGM 1602/1624 VRB05KT 9999 SCT008 BKN060 TEMPO 1602/1606 3000 -RA BR BKN004 BECMG 1607/1609 25010KT BECMG 1614/1616 19007KT
TAF AMD ENGM 1602/1624 VRB05KT 9999 SCT008 BKN060 TEMPO 1602/1606 3000 -RA BR BKN004 BECMG 1607/1609 25010KT BECMG 1614/1616 19007KT
TAF AMD ENGM 1600/1624 VRB05KT 8000 -RA SCT007 BKN014 TEMPO 1600/1607 17010KT 2500 SHRA BR BKN003 SCT015CB BECMG 1607/1609 25010KT FEW020 SCT030 BECMG 1614/1616 19007KT
TAF AMD ENGM 1600/1624 VRB05KT 8000 -RA SCT007 BKN014 TEMPO 1600/1607 17010KT 2500 SHRA BR BKN003 SCT015CB BECMG 1607/1609 25010KT FEW020 SCT030 BECMG 1614/1616 19007KT
AMD ENGM 1600/1624 VRB05KT 8000 -RA SCT007 BKN014 TEMPO 1600/1607 17010KT 2500 SHRA BR BKN003 SCT015CB BECMG 1607/1609 25010KT FEW020 SCT030 BECMG 1614/1616 19007KT
TAF ENGM 1600/1624 VRB05KT 8000 -RA SCT007 BKN014 TEMPO 1600/1607 17010G20KT 2500 SHRA BR BKN005 SCT015CB BECMG 1607/1609 25010KT FEW020 SCT030 BECMG 1614/1616 19007KT
ENGM 1600/1624 VRB05KT 8000 -RA SCT007 BKN014 TEMPO 1600/1607 17010G20KT 2500 SHRA BR BKN005 SCT015CB BECMG 1607/1609 25010KT FEW020 SCT030 BECMG 1614/1616 19007KT
ENGM 1600/1624 VRB05KT 8000 -RA SCT007 BKN014 TEMPO 1600/1607 17010G20KT 2500 SHRA BR BKN005 SCT015CB BECMG 1607/1609 25010KT FEW020 SCT030 BECMG 1614/1616 19007KT
ENGM 1518/1618 VRB05KT 9999 -RA SCT020 BKN030 TEMPO 1519/1606 17010G20KT 4000 SHRA BKN008 SCT020CB BECMG 1607/1609 25010KT BECMG 1614/1616 19007KT
TAF ENGM 1518/1618 VRB05KT 9999 -RA SCT020 BKN030 TEMPO 1519/1606 17010G20KT 4000 SHRA BKN008 SCT020CB BECMG 1607/1609 25010KT BECMG 1614/1616 19007KT
ENGM 1518/1618 VRB05KT 9999 -RA SCT020 BKN030 TEMPO 1519/1606 17010G20KT 4000 SHRA BKN008 SCT020CB BECMG 1607/1609 25010KT BECMG 1614/1616 19007KT
TAF ENGM 1512/1612 18015KT 9999 SCT030 BKN060 BECMG 1520/1522 SHRA BKN012 TEMPO 1521/1606 4000 SHRA BKN008 SCT020CB PROB30 1600/1606 TS BECMG 1607/1609 CAVOK
ENGM 1512/1612 18015KT 9999 SCT030 BKN060 BECMG 1520/1522 SHRA BKN012 TEMPO 1521/1606 4000 SHRA BKN008 SCT020CB PROB30 1600/1606 TS BECMG 1607/1609 CAVOK
ENGM 1512/1612 18015KT 9999 SCT030 BKN060 BECMG 1520/1522 SHRA BKN012 TEMPO 1521/1606 4000 SHRA BKN008 SCT020CB PROB30 1600/1606 TS BECMG 1607/1609 CAVOK
TAF ENGM 1506/1606 16008KT 9999 FEW010 SCT040 BECMG 1520/1522 SHRA BKN012 TEMPO 1521/1606 4000 SHRA BKN008 SCT020CB PROB30 TEMPO 1521/1603 TS
TAF ENGM 1506/1606 16008KT 9999 FEW010 SCT040 BECMG 1520/1522 SHRA BKN012 TEMPO 1521/1606 4000 SHRA BKN008 SCT020CB PROB30 TEMPO 1521/1603 TS
ENGM 1506/1606 16008KT 9999 FEW010 SCT040 BECMG 1520/1522 SHRA BKN012 TEMPO 1521/1606 4000 SHRA BKN008 SCT020CB PROB30 TEMPO 1521/1603 TS
TAF ENGM 1500/1524 18008KT CAVOK TEMPO 1521/1524 4000 SHRA BKN012 SCT020CB
ENGM 1500/1524 18008KT CAVOK TEMPO 1521/1524 4000 SHRA BKN012 SCT020CB
ENGM 1500/1524 18008KT CAVOK TEMPO 1521/1524 4000 SHRA BKN012 SCT020CB
TAF ENGM 1418/1518 18008KT CAVOK
ENGM 1418/1518 18008KT CAVOK
TAF ENGM 1418/1518 18008KT CAVOK
ENGM 1418/1518 18008KT CAVOK
TAF ENGM 1412/1512 18008KT CAVOK
ENGM 1412/1512 18008KT CAVOK
TAF ENGM 1412/1512 18008KT CAVOK
ENGM 1412/1512 18008KT CAVOK
TAF ENGM 1406/1506 VRB05KT CAVOK BECMG 1409/1411 18010KT
ENGM 1406/1506 VRB05KT CAVOK BECMG 1409/1411 18010KT
ENGM 1406/1506 VRB05KT CAVOK BECMG 1409/1411 18010KT
TAF ENGM 1400/1424 VRB05KT CAVOK BECMG 1409/1411 19010KT
ENGM 1400/1424 VRB05KT CAVOK BECMG 1409/1411 19010KT
TAF ENGM 1400/1424 VRB05KT CAVOK BECMG 1409/1411 19010KT
ENGM 1400/1424 VRB05KT CAVOK BECMG 1409/1411 19010KT
TAF ENGM 1318/1418 VRB05KT CAVOK BECMG 1410/1412 20010KT
ENGM 1318/1418 VRB05KT CAVOK BECMG 1410/1412 20010KT
ENGM 1318/1418 VRB05KT CAVOK BECMG 1410/1412 20010KT
TAF AMD ENGM 1313/1412 20005KT CAVOK
AMD ENGM 1313/1412 20005KT CAVOK
TAF ENGM 1312/1412 30005KT CAVOK
ENGM 1312/1412 30005KT CAVOK
ENGM 1312/1412 30005KT CAVOK
TAF ENGM 1306/1406 32008KT CAVOK
ENGM 1306/1406 32008KT CAVOK
ENGM 1306/1406 32008KT CAVOK
TAF ENGM 1300/1324 01010KT 9999 FEW020 BKN040 TEMPO 1300/1303 SHRA BKN012 FEW020CB BECMG 1310/1312 24005KT
ENGM 1300/1324 01010KT 9999 FEW020 BKN040 TEMPO 1300/1303 SHRA BKN012 FEW020CB BECMG 1310/1312 24005KT
ENGM 1300/1324 01010KT 9999 FEW020 BKN040 TEMPO 1300/1303 SHRA BKN012 FEW020CB BECMG 1310/1312 24005KT
TAF AMD ENGM 1219/1318 19010KT 9999 SCT020 BKN060 TEMPO 1219/1224 SHRA BKN010 FEW020CB PROB30 TEMPO 1219/1221 TS BECMG 1222/1224 35008KT
TAF AMD ENGM 1219/1318 19010KT 9999 SCT020 BKN060 TEMPO 1219/1224 SHRA BKN010 FEW020CB PROB30 TEMPO 1219/1221 TS BECMG 1222/1224 35008KT
AMD ENGM 1219/1318 19010KT 9999 SCT020 BKN060 TEMPO 1219/1224 SHRA BKN010 FEW020CB PROB30 TEMPO 1219/1221 TS BECMG 1222/1224 35008KT
TAF ENGM 1218/1318 19010KT 9999 SCT020 BKN060 TEMPO 1218/1224 SHRA FEW020CB BKN030 PROB30 TEMPO 1218/1221 TS BECMG 1222/1224 35008KT
ENGM 1218/1318 19010KT 9999 SCT020 BKN060 TEMPO 1218/1224 SHRA FEW020CB BKN030 PROB30 TEMPO 1218/1221 TS BECMG 1222/1224 35008KT
TAF ENGM 1218/1318 19010KT 9999 SCT020 BKN060 TEMPO 1218/1224 SHRA FEW020CB BKN030 PROB30 TEMPO 1218/1221 TS BECMG 1222/1224 35008KT
ENGM 1218/1318 19010KT 9999 SCT020 BKN060 TEMPO 1218/1224 SHRA FEW020CB BKN030 PROB30 TEMPO 1218/1221 TS BECMG 1222/1224 35008KT
TAF ENGM 1212/1312 19008KT 9999 FEW012 BKN040 TEMPO 1218/1224 SHRA FEW020CB BKN025 PROB30 TEMPO 1218/1221 TS BECMG 1222/1224 35010KT
ENGM 1212/1312 19008KT 9999 FEW012 BKN040 TEMPO 1218/1224 SHRA FEW020CB BKN025 PROB30 TEMPO 1218/1221 TS BECMG 1222/1224 35010KT
ENGM 1212/1312 19008KT 9999 FEW012 BKN040 TEMPO 1218/1224 SHRA FEW020CB BKN025 PROB30 TEMPO 1218/1221 TS BECMG 1222/1224 35010KT
TAF ENGM 1206/1306 19008KT 9999 FEW012 BKN040 TEMPO 1218/1224 SHRA FEW020CB BKN025 PROB30 TEMPO 1218/1221 TS BECMG 1222/1224 35010KT
ENGM 1206/1306 19008KT 9999 FEW012 BKN040 TEMPO 1218/1224 SHRA FEW020CB BKN025 PROB30 TEMPO 1218/1221 TS BECMG 1222/1224 35010KT
ENGM 1206/1306 19008KT 9999 FEW012 BKN040 TEMPO 1218/1224 SHRA FEW020CB BKN025 PROB30 TEMPO 1218/1221 TS BECMG 1222/1224 35010KT
TAF ENGM 1200/1224 19008KT 9999 FEW012 BKN040 PROB40 TEMPO 1200/1208 BKN008 TEMPO 1218/1224 SHRA FEW020CB BKN025 PROB30 TEMPO 1218/1221 TS BECMG 1222/1224 35010KT
ENGM 1200/1224 19008KT 9999 FEW012 BKN040 PROB40 TEMPO 1200/1208 BKN008 TEMPO 1218/1224 SHRA FEW020CB BKN025 PROB30 TEMPO 1218/1221 TS BECMG 1222/1224 35010KT
ENGM 1200/1224 19008KT 9999 FEW012 BKN040 PROB40 TEMPO 1200/1208 BKN008 TEMPO 1218/1224 SHRA FEW020CB BKN025 PROB30 TEMPO 1218/1221 TS BECMG 1222/1224 35010KT
TAF AMD ENGM 1121/1218 19008KT 9999 SCT015 PROB40 TEMPO 1122/1208 BKN008
TAF AMD ENGM 1121/1218 19008KT 9999 SCT015 PROB40 TEMPO 1122/1208 BKN008
TAF ENGM 1118/1218 19018KT CAVOK BECMG 1119/1121 19008KT PROB30 TEMPO 1200/1208 BKN008
ENGM 1118/1218 19018KT CAVOK BECMG 1119/1121 19008KT PROB30 TEMPO 1200/1208 BKN008
TAF ENGM 1118/1218 19018KT CAVOK BECMG 1119/1121 19008KT PROB30 TEMPO 1200/1208 BKN008
ENGM 1118/1218 19018KT CAVOK BECMG 1119/1121 19008KT PROB30 TEMPO 1200/1208 BKN008
TAF ENGM 1112/1212 19010KT CAVOK PROB30 TEMPO 1200/1208 BKN008
ENGM 1112/1212 19010KT CAVOK PROB30 TEMPO 1200/1208 BKN008
TAF ENGM 1112/1212 19010KT CAVOK PROB30 TEMPO 1200/1208 BKN008
ENGM 1112/1212 19010KT CAVOK PROB30 TEMPO 1200/1208 BKN008
COR ENGM 1106/1206 19008KT 4000 BCFG BKN005 TEMPO 1106/1107 0500 FG VV001 BECMG 1106/1108 9999 FEW015 PROB30 TEMPO 1200/1206 BKN008
TAF COR ENGM 1106/1206 19008KT 4000 BCFG BKN005 TEMPO 1106/1107 0500 FG VV001 BECMG 1106/1108 9999 FEW015 PROB30 TEMPO 1200/1206 BKN008
TAF ENGM 1106/1206 VRB05KT 9999 FEW010 PROB40 1106/1107 2000 BCFG BKN002 BECMG 1107/1109 19010KT PROB30 TEMPO 1200/1206 BKN008
COR ENGM 1106/1206 19008KT 4000 BCFG BKN005 TEMPO 1106/1107 0500 FG VV001 BECMG 1106/1108 9999 FEW015 PROB30 TEMPO 1200/1206 BKN008
TAF ENGM 1100/1124 VRB05KT CAVOK PROB30 1101/1106 0500 FG VV002 BECMG 1107/1111 19010KT PROB30 TEMPO 1114/1124 19015G25KT
ENGM 1100/1124 VRB05KT CAVOK PROB30 1101/1106 0500 FG VV002 BECMG 1107/1111 19010KT PROB30 TEMPO 1114/1124 19015G25KT
ENGM 1100/1124 VRB05KT CAVOK PROB30 1101/1106 0500 FG VV002 BECMG 1107/1111 19010KT PROB30 TEMPO 1114/1124 19015G25KT
TAF ENGM 1018/1118 VRB05KT CAVOK PROB30 1101/1106 0500 FG VV002 BECMG 1109/1112 19010KT PROB30 TEMPO 1114/1118 19015G25KT
ENGM 1018/1118 VRB05KT CAVOK PROB30 1101/1106 0500 FG VV002 BECMG 1109/1112 19010KT PROB30 TEMPO 1114/1118 19015G25KT
TAF ENGM 1018/1118 VRB05KT CAVOK PROB30 1101/1106 0500 FG VV002 BECMG 1109/1112 19010KT PROB30 TEMPO 1114/1118 19015G25KT
ENGM 1018/1118 VRB05KT CAVOK PROB30 1101/1106 0500 FG VV002 BECMG 1109/1112 19010KT PROB30 TEMPO 1114/1118 19015G25KT
TAF ENGM 1012/1112 VRB05KT 9999 SCT030 PROB30 1100/1106 0500 FG VV002 BECMG 1109/1112 19010KT
ENGM 1012/1112 VRB05KT 9999 SCT030 PROB30 1100/1106 0500 FG VV002 BECMG 1109/1112 19010KT
TAF ENGM 1012/1112 VRB05KT 9999 SCT030 PROB30 1100/1106 0500 FG VV002 BECMG 1109/1112 19010KT
ENGM 1012/1112 VRB05KT 9999 SCT030 PROB30 1100/1106 0500 FG VV002 BECMG 1109/1112 19010KT
TAF ENGM 1006/1106 VRB05KT 9999 FEW015 SCT030 PROB30 1100/1106 0500 FG VV002
ENGM 1006/1106 VRB05KT 9999 FEW015 SCT030 PROB30 1100/1106 0500 FG VV002
TAF ENGM 1006/1106 VRB05KT 9999 FEW015 SCT030 PROB30 1100/1106 0500 FG VV002
ENGM 1006/1106 VRB05KT 9999 FEW015 SCT030 PROB30 1100/1106 0500 FG VV002
TAF AMD ENGM 1001/1024 VRB05KT 9999 BKN015 TEMPO 1001/1006 3000 BR BKN004 PROB30 1021/1024 0500 FG VV002
TAF AMD ENGM 1001/1024 VRB05KT 9999 BKN015 TEMPO 1001/1006 3000 BR BKN004 PROB30 1021/1024 0500 FG VV002
AMD ENGM 1001/1024 VRB05KT 9999 BKN015 TEMPO 1001/1006 3000 BR BKN004 PROB30 1021/1024 0500 FG VV002

Data hämtat från Aviation Digital Data Service (ADDS)